Time;durP1;ratioP1;P1;durP2;ratioP2;P2;SDS_P1;SDS_P2;PMS_P1;PMS_P2;Temp;Humidity;BMP_temperature;BMP_pressure;BME280_temperature;BME280_humidity;BME280_pressure;Samples;Min_cycle;Max_cycle;Signal;HPM_P1;HPM_P2
2021/07/18 00:02:13;;;;;;;4.68;2.53;;;19.70;87.80;;;;;;5073272;28;20041;-74
2021/07/18 00:04:38;;;;;;;3.75;2.08;;;19.80;88.00;;;;;;5075525;28;20024;-74
2021/07/18 00:07:04;;;;;;;3.55;2.03;;;19.70;88.20;;;;;;5074013;28;20111;-74
2021/07/18 00:09:30;;;;;;;4.28;2.35;;;19.70;88.50;;;;;;5071180;28;20028;-74
2021/07/18 00:11:55;;;;;;;5.05;2.20;;;19.70;88.70;;;;;;5073234;28;20013;-74
2021/07/18 00:14:21;;;;;;;5.20;2.40;;;19.60;89.00;;;;;;5075031;28;20025;-74
2021/07/18 00:16:46;;;;;;;2.97;2.33;;;19.60;89.20;;;;;;5077573;28;20540;-73
2021/07/18 00:19:12;;;;;;;3.92;2.38;;;19.60;89.50;;;;;;5076124;28;20025;-74
2021/07/18 00:21:38;;;;;;;4.05;2.15;;;19.50;89.70;;;;;;5079304;28;20025;-73
2021/07/18 00:24:04;;;;;;;4.03;2.40;;;19.50;90.00;;;;;;5075089;28;20016;-74
2021/07/18 00:26:30;;;;;;;4.18;2.90;;;19.50;90.10;;;;;;5070922;28;20039;-73
2021/07/18 00:28:55;;;;;;;2.97;2.20;;;19.50;90.20;;;;;;5072565;28;20029;-74
2021/07/18 00:31:21;;;;;;;4.03;2.42;;;19.40;90.30;;;;;;5073863;28;20428;-74
2021/07/18 00:33:46;;;;;;;4.55;2.55;;;19.40;90.40;;;;;;5074134;28;20488;-73
2021/07/18 00:36:12;;;;;;;4.45;2.42;;;19.40;90.60;;;;;;5076947;28;20059;-74
2021/07/18 00:38:37;;;;;;;3.50;2.33;;;19.30;90.70;;;;;;5073358;28;20041;-73
2021/07/18 00:41:05;;;;;;;4.43;2.42;;;19.30;90.80;;;;;;5075452;28;20100;-73
2021/07/18 00:43:31;;;;;;;4.43;2.42;;;19.30;90.90;;;;;;5075797;28;20028;-73
2021/07/18 00:45:57;;;;;;;3.97;2.53;;;19.30;91.00;;;;;;5074474;28;20048;-73
2021/07/18 00:48:26;;;;;;;4.10;2.83;;;19.30;91.10;;;;;;5070131;28;20031;-73
2021/07/18 00:50:51;;;;;;;3.75;2.38;;;19.30;91.20;;;;;;5074950;28;20035;-73
2021/07/18 00:53:17;;;;;;;3.50;2.47;;;19.20;91.30;;;;;;5080953;28;20418;-74
2021/07/18 00:55:44;;;;;;;4.30;2.35;;;19.20;91.40;;;;;;5079240;28;20028;-73
2021/07/18 00:58:11;;;;;;;3.10;2.28;;;19.20;91.60;;;;;;5078407;28;20009;-73
2021/07/18 01:00:37;;;;;;;3.65;2.10;;;19.20;91.60;;;;;;5076685;28;20023;-74
2021/07/18 01:03:03;;;;;;;3.13;2.38;;;19.20;91.70;;;;;;5079455;28;20378;-73
2021/07/18 01:05:28;;;;;;;3.70;2.22;;;19.10;91.80;;;;;;5076163;28;20032;-73
2021/07/18 01:07:54;;;;;;;4.32;2.53;;;19.10;91.90;;;;;;5075045;28;20019;-73
2021/07/18 01:10:20;;;;;;;5.13;2.50;;;19.10;92.00;;;;;;5078074;28;20027;-73
2021/07/18 01:12:46;;;;;;;3.58;2.08;;;19.00;92.10;;;;;;5075262;28;20024;-74
2021/07/18 01:15:13;;;;;;;5.82;2.40;;;19.00;92.20;;;;;;5076184;28;20025;-73
2021/07/18 01:17:38;;;;;;;3.00;2.20;;;19.00;92.30;;;;;;5076759;28;20024;-73
2021/07/18 01:20:07;;;;;;;4.20;2.45;;;19.00;92.40;;;;;;5077842;28;20027;-74
2021/07/18 01:22:33;;;;;;;2.30;1.77;;;18.90;92.50;;;;;;5074446;28;20161;-74
2021/07/18 01:24:59;;;;;;;2.65;1.80;;;18.90;92.60;;;;;;5074544;28;20115;-73
2021/07/18 01:27:26;;;;;;;3.55;2.00;;;18.80;92.70;;;;;;5073538;28;20036;-73
2021/07/18 01:29:51;;;;;;;2.85;2.33;;;18.80;92.70;;;;;;5075955;28;20020;-73
2021/07/18 01:32:17;;;;;;;3.42;2.30;;;18.80;92.80;;;;;;5076522;28;20024;-73
2021/07/18 01:34:43;;;;;;;2.65;2.03;;;18.70;92.90;;;;;;5075098;28;20501;-73
2021/07/18 01:37:08;;;;;;;2.55;1.60;;;18.70;93.00;;;;;;5073518;28;20025;-73
2021/07/18 01:39:34;;;;;;;5.20;1.38;;;18.60;92.90;;;;;;5075312;28;20123;-73
2021/07/18 01:41:59;;;;;;;1.85;1.13;;;18.50;93.00;;;;;;5076940;28;20021;-74
2021/07/18 01:44:25;;;;;;;1.70;1.27;;;18.20;93.20;;;;;;5076315;28;20448;-73
2021/07/18 01:46:51;;;;;;;4.53;1.90;;;18.10;93.50;;;;;;5075720;28;20063;-73
2021/07/18 01:49:17;;;;;;;1.65;1.15;;;18.00;93.70;;;;;;5077068;28;20555;-73
2021/07/18 01:51:43;;;;;;;1.55;1.20;;;18.00;93.70;;;;;;5095040;28;20028;-73
2021/07/18 01:54:10;;;;;;;1.92;1.50;;;18.00;93.80;;;;;;5076502;28;20027;-73
2021/07/18 01:56:36;;;;;;;2.25;1.08;;;18.00;93.80;;;;;;5075370;28;20021;-73
2021/07/18 01:59:02;;;;;;;1.73;1.02;;;18.00;93.80;;;;;;5079264;28;20026;-73
2021/07/18 02:01:31;;;;;;;1.30;1.00;;;18.00;93.90;;;;;;5075205;28;20043;-73
2021/07/18 02:03:57;;;;;;;2.13;1.17;;;17.90;93.80;;;;;;5074235;28;20027;-73
2021/07/18 02:06:25;;;;;;;2.40;1.23;;;17.90;93.90;;;;;;5076746;28;20020;-73
2021/07/18 02:08:55;;;;;;;1.98;1.65;;;17.80;94.00;;;;;;5074588;28;20025;-73
2021/07/18 02:11:25;;;;;;;1.63;1.20;;;17.80;94.10;;;;;;5074301;28;20024;-73
2021/07/18 02:13:57;;;;;;;1.52;1.13;;;17.80;94.10;;;;;;5076611;28;20115;-73
2021/07/18 02:16:24;;;;;;;1.70;0.93;;;17.80;94.00;;;;;;5079358;28;20473;-73
2021/07/18 02:18:50;;;;;;;2.50;1.27;;;17.80;94.10;;;;;;5075661;28;20107;-73
2021/07/18 02:21:18;;;;;;;1.88;1.20;;;17.70;94.00;;;;;;5076098;28;20096;-74
2021/07/18 02:23:44;;;;;;;3.80;1.58;;;17.70;94.10;;;;;;5074697;28;20056;-73
2021/07/18 02:26:09;;;;;;;2.05;1.40;;;17.70;94.10;;;;;;5074243;28;20508;-74
2021/07/18 02:28:35;;;;;;;3.60;2.10;;;17.70;94.10;;;;;;5075213;28;20382;-73
2021/07/18 02:31:04;;;;;;;2.95;1.77;;;17.70;94.20;;;;;;5076209;28;20048;-74
2021/07/18 02:33:30;;;;;;;2.93;1.97;;;17.70;94.30;;;;;;5074698;28;20017;-73
2021/07/18 02:35:57;;;;;;;3.03;1.75;;;17.70;94.30;;;;;;5072283;28;20055;-74
2021/07/18 02:38:23;;;;;;;2.42;1.63;;;17.70;94.40;;;;;;5074879;28;20087;-73
2021/07/18 02:40:49;;;;;;;1.60;1.30;;;17.60;94.50;;;;;;5082261;28;20440;-73
2021/07/18 02:43:14;;;;;;;1.55;1.15;;;17.60;94.50;;;;;;5073950;28;20493;-73
2021/07/18 02:45:40;;;;;;;2.50;1.30;;;17.60;94.60;;;;;;5079166;28;20021;-73
2021/07/18 02:48:05;;;;;;;1.38;1.00;;;17.50;94.60;;;;;;5073138;28;20030;-73
2021/07/18 02:50:31;;;;;;;1.73;0.77;;;17.50;94.70;;;;;;5073111;28;20017;-74
2021/07/18 02:52:56;;;;;;;1.55;1.15;;;17.40;94.70;;;;;;5073532;28;20388;-73
2021/07/18 02:55:22;;;;;;;1.60;1.02;;;17.40;94.80;;;;;;5073110;28;20488;-73
2021/07/18 02:57:48;;;;;;;2.33;1.38;;;17.40;94.80;;;;;;5075805;28;20027;-73
2021/07/18 03:00:23;;;;;;;1.85;1.25;;;17.40;94.90;;;;;;5073665;28;20020;-73
2021/07/18 03:02:49;;;;;;;1.67;1.30;;;17.40;94.90;;;;;;5075899;28;20387;-73
2021/07/18 03:05:15;;;;;;;1.25;1.00;;;17.30;94.90;;;;;;5072613;28;20023;-73
2021/07/18 03:07:42;;;;;;;2.33;1.25;;;17.30;94.90;;;;;;5074438;28;20025;-73
2021/07/18 03:10:09;;;;;;;3.15;1.42;;;17.30;94.90;;;;;;5073207;28;20032;-74
2021/07/18 03:12:35;;;;;;;2.90;2.10;;;17.30;95.00;;;;;;5071979;28;20032;-73
2021/07/18 03:15:02;;;;;;;2.50;1.77;;;17.30;95.00;;;;;;5077289;28;20073;-73
2021/07/18 03:17:28;;;;;;;3.85;1.80;;;17.30;95.10;;;;;;5075904;28;20032;-73
2021/07/18 03:19:54;;;;;;;3.33;2.28;;;17.20;95.10;;;;;;5075855;28;20017;-73
2021/07/18 03:22:20;;;;;;;3.75;1.98;;;17.20;95.10;;;;;;5073789;28;20025;-73
2021/07/18 03:24:46;;;;;;;2.92;1.88;;;17.20;95.20;;;;;;5076814;28;20111;-73
2021/07/18 03:27:11;;;;;;;2.95;1.95;;;17.20;95.20;;;;;;5074370;28;20099;-73
2021/07/18 03:29:37;;;;;;;2.47;1.83;;;17.20;95.20;;;;;;5072696;28;20477;-73
2021/07/18 03:32:03;;;;;;;3.75;1.73;;;17.20;95.30;;;;;;5077283;28;20591;-73
2021/07/18 03:34:29;;;;;;;3.35;2.15;;;17.20;95.30;;;;;;5075738;28;20029;-73
2021/07/18 03:36:54;;;;;;;3.97;1.40;;;17.20;95.30;;;;;;5078218;28;20024;-74
2021/07/18 03:39:20;;;;;;;3.58;1.75;;;17.20;95.40;;;;;;5073453;28;20033;-73
2021/07/18 03:41:45;;;;;;;2.47;1.35;;;17.20;95.50;;;;;;5073634;28;20150;-73
2021/07/18 03:44:11;;;;;;;2.67;1.25;;;17.20;95.50;;;;;;5076076;28;20492;-73
2021/07/18 03:46:36;;;;;;;2.42;1.45;;;17.20;95.60;;;;;;5071665;28;20046;-73
2021/07/18 03:49:02;;;;;;;3.95;2.15;;;17.20;95.60;;;;;;5078448;28;20020;-74
2021/07/18 03:51:28;;;;;;;8.77;3.83;;;17.20;95.70;;;;;;5077054;28;20028;-73
2021/07/18 03:53:53;;;;;;;5.85;2.70;;;17.20;95.80;;;;;;5072509;28;20039;-73
2021/07/18 03:56:22;;;;;;;8.13;3.78;;;17.20;95.90;;;;;;5074696;28;20032;-73
2021/07/18 03:58:48;;;;;;;5.65;3.25;;;17.30;96.00;;;;;;5072265;28;20394;-73
2021/07/18 04:01:14;;;;;;;6.30;3.45;;;17.30;96.10;;;;;;5078502;28;20048;-73
2021/07/18 04:03:39;;;;;;;6.22;4.00;;;17.30;96.50;;;;;;5074318;28;20059;-73
2021/07/18 04:06:05;;;;;;;8.15;4.28;;;17.40;96.40;;;;;;5078692;28;20370;-73
2021/07/18 04:08:31;;;;;;;7.20;4.70;;;17.40;96.50;;;;;;5072644;28;20023;-73
2021/07/18 04:10:57;;;;;;;7.22;4.25;;;17.40;96.60;;;;;;5072306;28;20107;-72
2021/07/18 04:13:23;;;;;;;7.22;4.00;;;17.40;96.70;;;;;;5071766;28;20112;-73
2021/07/18 04:15:48;;;;;;;7.40;4.40;;;17.40;96.80;;;;;;5075914;28;20145;-72
2021/07/18 04:18:14;;;;;;;11.23;4.53;;;17.40;96.90;;;;;;5078454;28;20024;-72
2021/07/18 04:20:39;;;;;;;6.25;4.35;;;17.50;97.00;;;;;;5073417;28;20373;-73
2021/07/18 04:23:07;;;;;;;8.68;5.07;;;17.50;97.10;;;;;;5074057;28;20114;-73
2021/07/18 04:25:32;;;;;;;6.78;3.75;;;17.50;97.20;;;;;;5074942;28;20074;-73
2021/07/18 04:27:58;;;;;;;8.15;4.30;;;17.50;97.30;;;;;;5075423;28;20091;-73
2021/07/18 04:30:24;;;;;;;5.20;4.40;;;17.50;97.40;;;;;;5078669;28;20473;-73
2021/07/18 04:32:49;;;;;;;5.57;4.38;;;17.50;97.50;;;;;;5074254;28;20069;-73
2021/07/18 04:35:15;;;;;;;7.45;4.80;;;17.60;97.60;;;;;;5074203;28;20404;-73
2021/07/18 04:37:41;;;;;;;8.80;4.57;;;17.60;97.60;;;;;;5075078;28;20158;-72
2021/07/18 04:40:07;;;;;;;8.27;5.07;;;17.60;97.70;;;;;;5077728;28;20020;-72
2021/07/18 04:42:33;;;;;;;7.68;4.88;;;17.60;97.70;;;;;;5077385;28;20023;-73
2021/07/18 04:44:59;;;;;;;7.18;4.63;;;17.70;97.80;;;;;;5075564;28;20025;-73
2021/07/18 04:47:25;;;;;;;8.13;4.57;;;17.70;97.80;;;;;;5074739;28;20027;-73
2021/07/18 04:49:52;;;;;;;7.35;4.88;;;17.60;97.90;;;;;;5076378;28;20397;-72
2021/07/18 04:52:18;;;;;;;7.93;4.38;;;17.70;98.00;;;;;;5071533;28;20025;-73
2021/07/18 04:54:44;;;;;;;6.80;4.43;;;17.60;98.00;;;;;;5073201;28;20029;-72
2021/07/18 04:57:10;;;;;;;6.78;3.97;;;17.60;98.00;;;;;;5071173;28;20049;-73
2021/07/18 04:59:36;;;;;;;8.52;4.70;;;17.60;98.10;;;;;;5075930;28;20027;-73
2021/07/18 05:02:02;;;;;;;7.47;4.55;;;17.70;98.10;;;;;;5073247;28;20020;-72
2021/07/18 05:04:27;;;;;;;5.25;3.78;;;17.70;98.20;;;;;;5072881;28;20020;-72
2021/07/18 05:06:53;;;;;;;5.32;2.83;;;17.70;98.20;;;;;;5075381;28;20170;-72
2021/07/18 05:09:18;;;;;;;5.22;3.17;;;17.70;98.30;;;;;;5072725;28;20086;-72
2021/07/18 05:11:44;;;;;;;3.22;2.72;;;17.70;98.30;;;;;;5071550;28;20029;-72
2021/07/18 05:14:10;;;;;;;2.85;2.55;;;17.70;98.30;;;;;;5070953;28;20025;-72
2021/07/18 05:16:35;;;;;;;2.97;2.60;;;17.70;98.30;;;;;;5074828;28;20047;-72
2021/07/18 05:19:01;;;;;;;3.92;3.03;;;17.70;98.30;;;;;;5082522;28;20024;-72
2021/07/18 05:21:26;;;;;;;3.40;2.95;;;17.70;98.40;;;;;;5074557;28;20479;-72
2021/07/18 05:23:52;;;;;;;4.95;3.08;;;17.60;98.50;;;;;;5088524;28;20017;-72
2021/07/18 05:26:17;;;;;;;4.32;3.42;;;17.50;98.60;;;;;;5091510;28;20028;-72
2021/07/18 05:28:43;;;;;;;4.63;3.63;;;17.50;98.80;;;;;;5090457;28;20487;-72
2021/07/18 05:31:09;;;;;;;4.07;3.55;;;17.50;98.90;;;;;;5091842;28;20032;-72
2021/07/18 05:33:34;;;;;;;5.07;3.55;;;17.60;99.00;;;;;;5091977;28;20024;-72
2021/07/18 05:36:00;;;;;;;6.50;3.35;;;17.60;98.90;;;;;;5092394;28;20020;-72
2021/07/18 05:38:25;;;;;;;4.70;3.22;;;17.70;98.90;;;;;;5093926;28;20503;-72
2021/07/18 05:40:52;;;;;;;6.82;4.18;;;17.80;98.90;;;;;;5094260;28;20052;-72
2021/07/18 05:43:17;;;;;;;4.65;3.20;;;17.80;98.90;;;;;;5095287;28;20416;-72
2021/07/18 05:45:43;;;;;;;6.07;2.90;;;17.90;98.80;;;;;;5094236;28;20491;-72
2021/07/18 05:48:09;;;;;;;5.18;3.33;;;17.90;98.70;;;;;;5093897;28;20020;-72
2021/07/18 05:50:34;;;;;;;4.15;3.03;;;18.00;98.70;;;;;;5093612;28;20020;-72
2021/07/18 05:53:00;;;;;;;3.83;3.13;;;18.00;98.60;;;;;;5093429;28;20520;-72
2021/07/18 05:55:25;;;;;;;4.95;3.40;;;18.00;98.60;;;;;;5080724;28;20025;-72
2021/07/18 05:57:51;;;;;;;4.72;3.83;;;18.10;98.60;;;;;;5089959;28;20051;-72
2021/07/18 06:00:17;;;;;;;5.70;4.25;;;18.10;98.50;;;;;;5091468;28;20041;-72
2021/07/18 06:02:43;;;;;;;6.25;4.00;;;18.20;98.50;;;;;;5074939;28;20025;-72
2021/07/18 06:05:09;;;;;;;5.18;3.58;;;18.20;98.40;;;;;;5089526;28;20481;-72
2021/07/18 06:07:35;;;;;;;7.80;3.60;;;18.20;98.40;;;;;;5094131;28;20099;-72
2021/07/18 06:10:04;;;;;;;4.65;3.53;;;18.30;98.40;;;;;;5085024;28;20488;-73
2021/07/18 06:12:29;;;;;;;5.97;3.47;;;18.30;98.40;;;;;;5072625;28;20127;-72
2021/07/18 06:14:55;;;;;;;5.25;3.80;;;18.30;98.40;;;;;;5085820;28;20107;-72
2021/07/18 06:17:21;;;;;;;5.53;3.92;;;18.40;98.40;;;;;;5094273;28;20024;-72
2021/07/18 06:19:46;;;;;;;5.70;4.05;;;18.40;98.40;;;;;;5093515;28;20047;-72
2021/07/18 06:22:12;;;;;;;5.93;4.05;;;18.50;98.40;;;;;;5094578;28;20047;-72
2021/07/18 06:24:37;;;;;;;5.75;4.90;;;18.50;98.50;;;;;;5093450;28;20078;-72
2021/07/18 06:27:03;;;;;;;5.57;4.00;;;18.60;98.50;;;;;;5094411;28;20034;-72
2021/07/18 06:29:30;;;;;;;4.35;3.67;;;18.60;98.50;;;;;;5093288;28;20154;-72
2021/07/18 06:31:56;;;;;;;5.50;3.95;;;18.60;98.50;;;;;;5093250;28;20024;-72
2021/07/18 06:34:21;;;;;;;5.63;4.43;;;18.60;98.50;;;;;;5094323;28;20034;-72
2021/07/18 06:36:48;;;;;;;5.03;3.63;;;18.70;98.60;;;;;;5094313;28;20450;-72
2021/07/18 06:39:14;;;;;;;4.90;3.63;;;18.80;98.60;;;;;;5088453;28;20066;-72
2021/07/18 06:41:40;;;;;;;5.18;3.90;;;18.80;98.60;;;;;;5081763;28;20123;-72
2021/07/18 06:44:06;;;;;;;5.95;3.83;;;18.90;98.80;;;;;;5073296;28;20101;-72
2021/07/18 06:46:31;;;;;;;6.30;3.70;;;18.90;98.50;;;;;;5072609;28;20057;-72
2021/07/18 06:48:57;;;;;;;5.07;3.78;;;18.90;98.40;;;;;;5072866;28;20759;-72
2021/07/18 06:51:23;;;;;;;5.40;3.58;;;19.00;98.40;;;;;;5072954;28;20052;-72
2021/07/18 06:53:48;;;;;;;4.55;3.30;;;19.00;98.40;;;;;;5072001;28;20055;-72
2021/07/18 06:56:14;;;;;;;4.50;3.20;;;19.10;98.40;;;;;;5073094;28;20017;-72
2021/07/18 06:58:39;;;;;;;4.80;3.50;;;19.20;98.40;;;;;;5075825;28;20012;-72
2021/07/18 07:01:05;;;;;;;4.85;3.35;;;19.20;98.30;;;;;;5072145;28;20013;-72
2021/07/18 07:03:30;;;;;;;5.22;2.83;;;19.30;98.30;;;;;;5073218;28;20484;-72
2021/07/18 07:05:56;;;;;;;7.90;2.95;;;19.30;98.20;;;;;;5073090;28;20500;-72
2021/07/18 07:08:21;;;;;;;4.32;2.80;;;19.40;98.10;;;;;;5075597;28;20035;-73
2021/07/18 07:10:49;;;;;;;3.05;2.35;;;19.40;98.00;;;;;;5071685;28;20123;-72
2021/07/18 07:13:15;;;;;;;4.40;2.92;;;19.50;98.00;;;;;;5071596;28;20077;-72
2021/07/18 07:15:41;;;;;;;4.07;3.05;;;19.60;98.00;;;;;;5071576;28;20012;-72
2021/07/18 07:18:07;;;;;;;3.38;2.63;;;19.60;97.90;;;;;;5071457;28;20023;-72
2021/07/18 07:20:33;;;;;;;3.38;1.92;;;19.70;97.80;;;;;;5072973;28;20020;-72
2021/07/18 07:22:59;;;;;;;4.32;1.70;;;19.70;97.60;;;;;;5083613;28;20104;-72
2021/07/18 07:25:25;;;;;;;1.88;1.67;;;19.80;97.60;;;;;;5091573;28;20063;-72
2021/07/18 07:27:50;;;;;;;2.88;1.70;;;19.90;97.50;;;;;;5093351;28;20024;-72
2021/07/18 07:30:16;;;;;;;2.95;2.03;;;20.00;97.40;;;;;;5093159;28;20035;-72
2021/07/18 07:32:42;;;;;;;3.53;1.55;;;20.00;97.20;;;;;;5093305;28;20024;-71
2021/07/18 07:35:10;;;;;;;2.05;1.70;;;20.10;97.00;;;;;;5093193;28;20113;-72
2021/07/18 07:37:42;;;;;;;4.85;1.90;;;20.10;96.90;;;;;;5092833;28;20384;-72
2021/07/18 07:40:09;;;;;;;2.25;1.60;;;20.20;96.90;;;;;;5091723;28;20475;-72
2021/07/18 07:42:35;;;;;;;3.83;2.30;;;20.30;96.80;;;;;;5091737;28;20012;-71
2021/07/18 07:45:00;;;;;;;2.78;2.25;;;20.40;96.60;;;;;;5093088;28;20061;-71
2021/07/18 07:47:26;;;;;;;3.08;1.77;;;20.50;96.50;;;;;;5092946;28;20114;-72
2021/07/18 07:49:52;;;;;;;2.40;1.30;;;20.50;96.20;;;;;;5091760;28;20095;-71
2021/07/18 07:52:17;;;;;;;3.25;1.10;;;20.60;96.10;;;;;;5091358;28;20164;-72
2021/07/18 07:54:43;;;;;;;1.35;1.10;;;20.70;96.00;;;;;;5091478;28;20044;-72
2021/07/18 07:57:08;;;;;;;2.47;1.20;;;20.70;95.80;;;;;;5091515;28;20028;-72
2021/07/18 07:59:34;;;;;;;1.50;0.90;;;20.80;95.70;;;;;;5092283;28;20020;-72
2021/07/18 08:02:01;;;;;;;1.73;1.00;;;20.90;95.60;;;;;;5092794;28;20019;-72
2021/07/18 08:04:27;;;;;;;2.38;1.20;;;21.00;95.40;;;;;;5092661;28;20027;-71
2021/07/18 08:06:53;;;;;;;1.90;1.15;;;21.00;95.30;;;;;;5092737;28;20123;-72
2021/07/18 08:09:19;;;;;;;2.15;1.30;;;21.20;95.20;;;;;;5091178;28;20052;-72
2021/07/18 08:11:45;;;;;;;4.55;1.50;;;21.20;95.00;;;;;;5083290;28;20070;-72
2021/07/18 08:14:11;;;;;;;2.67;1.55;;;21.30;94.70;;;;;;5087416;28;20081;-74
2021/07/18 08:16:37;;;;;;;1.55;1.40;;;21.30;94.50;;;;;;5087624;28;20108;-72
2021/07/18 08:19:02;;;;;;;2.17;1.33;;;21.40;94.40;;;;;;5071860;28;20025;-72
2021/07/18 08:21:28;;;;;;;1.77;1.20;;;21.50;94.20;;;;;;5071775;28;20462;-72
2021/07/18 08:23:54;;;;;;;3.00;1.40;;;21.60;94.20;;;;;;5074733;28;20016;-72
2021/07/18 08:26:22;;;;;;;2.90;1.67;;;21.60;94.10;;;;;;5074529;28;20034;-72
2021/07/18 08:28:48;;;;;;;2.90;1.58;;;21.70;94.00;;;;;;5070404;28;20024;-72
2021/07/18 08:31:14;;;;;;;3.65;1.60;;;21.80;94.00;;;;;;5072025;28;20027;-72
2021/07/18 08:33:40;;;;;;;2.13;1.52;;;21.80;93.80;;;;;;5085463;28;20047;-72
2021/07/18 08:36:06;;;;;;;3.08;1.52;;;21.90;93.60;;;;;;5092131;28;20024;-72
2021/07/18 08:38:32;;;;;;;2.28;1.35;;;22.00;93.50;;;;;;5092082;28;20048;-72
2021/07/18 08:40:57;;;;;;;2.85;1.10;;;22.00;93.40;;;;;;5092200;28;20040;-72
2021/07/18 08:43:25;;;;;;;3.60;1.60;;;22.10;93.40;;;;;;5091147;28;20020;-72
2021/07/18 08:45:50;;;;;;;2.33;1.23;;;22.20;93.30;;;;;;5091083;28;20020;-72
2021/07/18 08:48:16;;;;;;;1.85;1.20;;;22.30;93.30;;;;;;5090903;28;20034;-72
2021/07/18 08:50:42;;;;;;;3.10;1.58;;;22.30;93.20;;;;;;5090845;28;20112;-72
2021/07/18 08:53:08;;;;;;;3.42;1.65;;;22.40;93.10;;;;;;5092044;28;20097;-72
2021/07/18 08:55:34;;;;;;;2.38;1.77;;;22.50;92.90;;;;;;5092115;28;20469;-72
2021/07/18 08:57:59;;;;;;;3.28;1.60;;;22.60;92.60;;;;;;5090683;28;20532;-71
2021/07/18 09:00:25;;;;;;;1.75;1.23;;;22.60;92.50;;;;;;5092176;28;20020;-72
2021/07/18 09:02:51;;;;;;;1.85;1.15;;;22.70;92.50;;;;;;5091918;28;20016;-72
2021/07/18 09:05:20;;;;;;;2.55;1.60;;;22.80;92.40;;;;;;5090738;28;20025;-72
2021/07/18 09:07:56;;;;;;;3.20;1.33;;;22.90;92.20;;;;;;5090742;28;20039;-72
2021/07/18 09:10:28;;;;;;;2.58;1.33;;;23.00;92.10;;;;;;5091780;28;20544;-72
2021/07/18 09:13:07;;;;;;;2.05;1.23;;;23.10;91.80;;;;;;5095878;28;20028;-72
2021/07/18 09:15:37;;;;;;;4.45;1.83;;;23.10;91.50;;;;;;5094748;28;20442;-72
2021/07/18 09:18:11;;;;;;;2.45;1.52;;;23.20;91.40;;;;;;5095515;28;20032;-72
2021/07/18 09:20:42;;;;;;;2.58;1.63;;;23.30;91.20;;;;;;5095955;28;20012;-72
2021/07/18 09:23:19;;;;;;;2.67;1.83;;;23.30;90.90;;;;;;5094356;28;20032;-72
2021/07/18 09:25:46;;;;;;;3.13;1.52;;;23.40;90.90;;;;;;5095711;28;20485;-72
2021/07/18 09:28:16;;;;;;;4.10;1.77;;;23.50;90.90;;;;;;5095391;28;20028;-72
2021/07/18 09:30:42;;;;;;;2.45;1.70;;;23.50;90.50;;;;;;5094406;28;20024;-72
2021/07/18 09:33:25;;;;;;;5.20;1.70;;;23.60;90.20;;;;;;5095429;28;20028;-72
2021/07/18 09:35:50;;;;;;;2.17;1.48;;;23.70;90.10;;;;;;5095545;28;20023;-72
2021/07/18 09:38:24;;;;;;;2.55;1.27;;;23.70;90.20;;;;;;5095454;28;20044;-72
2021/07/18 09:40:59;;;;;;;2.70;1.80;;;23.80;90.00;;;;;;5095245;28;20482;-72
2021/07/18 09:43:28;;;;;;;4.78;2.10;;;23.90;89.70;;;;;;5094031;28;20454;-72
2021/07/18 09:45:55;;;;;;;;;;;24.00;89.20;;;;;;5095794;28;20283;-72
2021/07/18 09:48:44;;;;;;;2.30;1.70;;;23.90;89.00;;;;;;5094028;28;20427;-72
2021/07/18 09:51:14;;;;;;;3.58;1.50;;;24.00;88.80;;;;;;5095263;28;20028;-72
2021/07/18 09:53:42;;;;;;;2.50;1.98;;;24.10;88.70;;;;;;5090477;28;20028;-72
2021/07/18 09:56:17;;;;;;;3.20;2.10;;;24.20;88.50;;;;;;5093552;28;20389;-72
2021/07/18 09:58:55;;;;;;;2.90;1.83;;;24.30;87.90;;;;;;5093785;28;20140;-72
2021/07/18 10:01:21;;;;;;;3.42;1.60;;;24.50;87.50;;;;;;5076619;28;20074;-72
2021/07/18 10:03:54;;;;;;;3.90;1.75;;;24.50;87.00;;;;;;5072902;28;20025;-72
2021/07/18 10:06:24;;;;;;;2.65;1.65;;;24.60;86.60;;;;;;5074266;28;20082;-72
2021/07/18 10:08:52;;;;;;;4.40;1.55;;;24.70;86.20;;;;;;5074517;28;20074;-73
2021/07/18 10:11:23;;;;;;;2.25;1.70;;;24.70;85.70;;;;;;5074004;28;20078;-73
2021/07/18 10:13:51;;;;;;;1.90;1.10;;;24.80;85.10;;;;;;5072851;28;20489;-73
2021/07/18 10:16:19;;;;;;;2.30;1.48;;;24.90;85.40;;;;;;5073700;28;20024;-73
2021/07/18 10:18:47;;;;;;;4.00;1.58;;;24.90;85.10;;;;;;5074002;28;20013;-72
2021/07/18 10:21:19;;;;;;;1.50;1.02;;;25.00;84.80;;;;;;5072486;28;20485;-73
2021/07/18 10:23:45;;;;;;;3.78;1.50;;;25.10;84.60;;;;;;5087047;28;20026;-73
2021/07/18 10:26:18;;;;;;;1.20;1.00;;;25.20;84.50;;;;;;5094321;28;20436;-73
2021/07/18 10:28:45;;;;;;;2.08;1.48;;;25.30;84.30;;;;;;5094378;28;20029;-73
2021/07/18 10:31:18;;;;;;;1.95;1.45;;;25.40;83.80;;;;;;5094395;28;20028;-73
2021/07/18 10:33:45;;;;;;;2.70;1.42;;;25.50;83.50;;;;;;5086510;28;20024;-73
2021/07/18 10:36:12;;;;;;;2.35;1.20;;;25.60;83.20;;;;;;5072840;28;20524;-73
2021/07/18 10:38:38;;;;;;;3.10;1.52;;;25.70;83.40;;;;;;5073585;28;20070;-73
2021/07/18 10:41:04;;;;;;;2.65;1.55;;;25.80;82.40;;;;;;5074457;28;20025;-73
2021/07/18 10:43:49;;;;;;;2.20;1.13;;;25.90;81.30;;;;;;5072397;28;20051;-73
2021/07/18 10:46:36;;;;;;;4.70;1.85;;;25.90;80.80;;;;;;5071217;28;20026;-73
2021/07/18 10:49:02;;;;;;;5.15;1.60;;;26.00;80.80;;;;;;5071125;28;20028;-73
2021/07/18 10:51:35;;;;;;;2.47;1.50;;;26.10;79.90;;;;;;5076114;28;20028;-73
2021/07/18 10:54:13;;;;;;;2.38;1.50;;;26.20;80.30;;;;;;5086316;28;20025;-73
2021/07/18 10:56:44;;;;;;;1.83;1.48;;;26.30;78.70;;;;;;5071957;28;20025;-73
2021/07/18 10:59:34;;;;;;;1.98;1.38;;;26.40;78.60;;;;;;5087655;28;20024;-73
2021/07/18 11:02:11;;;;;;;3.00;1.40;;;26.60;78.60;;;;;;5071785;28;20441;-73
2021/07/18 11:04:42;;;;;;;3.58;1.80;;;26.70;78.00;;;;;;5071858;28;20012;-74
2021/07/18 11:07:19;;;;;;;2.72;1.52;;;26.80;77.30;;;;;;5073176;28;20033;-74
2021/07/18 11:09:56;;;;;;;2.28;1.20;;;27.00;76.80;;;;;;5087726;28;20073;-73
2021/07/18 11:12:36;;;;;;;2.97;1.30;;;27.10;77.10;;;;;;5091945;28;20026;-73
2021/07/18 11:15:20;;;;;;;1.65;1.00;;;27.30;76.80;;;;;;5091835;28;20024;-73
2021/07/18 11:18:13;;;;;;;1.75;1.25;;;27.50;76.60;;;;;;5093667;28;20051;-74
2021/07/18 11:20:54;;;;;;;1.98;1.10;;;27.70;76.10;;;;;;5092064;28;20499;-74
2021/07/18 11:23:38;;;;;;;2.20;1.42;;;27.90;75.60;;;;;;5093607;28;20024;-74
2021/07/18 11:26:03;;;;;;;1.85;1.10;;;28.10;75.30;;;;;;5081535;28;20044;-74
2021/07/18 11:28:34;;;;;;;1.73;1.27;;;28.20;74.70;;;;;;5093334;28;20073;-74
2021/07/18 11:34:07;;;;;;;1.52;1.30;;;28.60;73.20;;;;;;5072001;28;20036;-74
2021/07/18 11:36:32;;;;;;;1.65;1.33;;;28.80;73.00;;;;;;5090821;28;20020;-74
2021/07/18 11:39:19;;;;;;;1.70;1.60;;;29.00;72.40;;;;;;5091710;28;20047;-74
2021/07/18 11:41:47;;;;;;;1.58;1.42;;;29.30;71.40;;;;;;5091709;28;20020;-74
2021/07/18 11:44:14;;;;;;;1.50;1.15;;;29.50;71.40;;;;;;5091374;28;20369;-74
2021/07/18 11:46:43;;;;;;;2.53;1.25;;;29.70;71.00;;;;;;5092392;28;20365;-74
2021/07/18 11:49:10;;;;;;;1.13;1.03;;;29.80;70.10;;;;;;5093046;28;20034;-74
2021/07/18 11:51:39;;;;;;;2.13;1.35;;;29.90;69.60;;;;;;5092875;28;20465;-75
2021/07/18 11:54:06;;;;;;;2.10;1.33;;;29.90;68.70;;;;;;5092773;28;20024;-75
2021/07/18 11:56:34;;;;;;;2.60;1.73;;;30.00;68.30;;;;;;5090013;28;20477;-75
2021/07/18 11:59:16;;;;;;;1.77;1.30;;;30.00;68.10;;;;;;5074681;28;20103;-75
2021/07/18 12:01:44;;;;;;;2.25;1.20;;;30.10;68.10;;;;;;5089290;28;20385;-75
2021/07/18 12:04:22;;;;;;;2.22;1.20;;;30.20;67.60;;;;;;5069730;28;20021;-75
2021/07/18 12:06:48;;;;;;;3.65;1.60;;;30.40;66.90;;;;;;5075064;28;20039;-75
2021/07/18 12:09:26;;;;;;;1.58;1.25;;;30.40;66.00;;;;;;5077101;28;20073;-75
2021/07/18 12:11:53;;;;;;;3.63;1.42;;;30.40;65.80;;;;;;5070619;28;20016;-75
2021/07/18 12:14:20;;;;;;;2.70;1.60;;;30.40;64.90;;;;;;5071086;28;20174;-76
2021/07/18 12:16:47;;;;;;;2.55;1.30;;;30.50;65.20;;;;;;5072477;28;20036;-75
2021/07/18 12:19:14;;;;;;;1.98;1.38;;;30.60;64.30;;;;;;5075429;28;20030;-76
2021/07/18 12:21:45;;;;;;;2.90;1.55;;;30.70;64.30;;;;;;5073663;28;20024;-75
2021/07/18 12:24:16;;;;;;;1.42;1.00;;;30.80;64.30;;;;;;5075542;28;20024;-75
2021/07/18 12:26:47;;;;;;;1.40;1.20;;;30.90;64.60;;;;;;5072466;28;20036;-75
2021/07/18 12:29:14;;;;;;;2.10;1.50;;;30.90;63.80;;;;;;5070816;28;20031;-75
2021/07/18 12:31:42;;;;;;;0.85;0.80;;;31.00;63.20;;;;;;5070250;28;20040;-75
2021/07/18 12:34:09;;;;;;;1.60;1.30;;;31.20;63.60;;;;;;5071764;28;20031;-75
2021/07/18 12:37:13;;;;;;;3.17;1.50;;;31.20;63.20;;;;;;5071854;28;20027;-75
2021/07/18 12:39:42;;;;;;;1.08;0.98;;;31.20;62.50;;;;;;5071487;28;20037;-75
2021/07/18 12:42:12;;;;;;;;;;;31.20;62.70;;;;;;5071807;28;20161;-75
2021/07/18 12:45:07;;;;;;;2.97;1.33;;;31.30;63.10;;;;;;5074821;28;19905;-75
2021/07/18 12:47:37;;;;;;;1.73;1.38;;;31.40;62.50;;;;;;5077152;28;20028;-75
2021/07/18 12:50:31;;;;;;;1.75;1.20;;;31.50;62.00;;;;;;5075534;28;20020;-75
2021/07/18 12:53:07;;;;;;;1.85;1.60;;;31.70;61.50;;;;;;5076592;28;20077;-76
2021/07/18 12:55:42;;;;;;;1.20;1.10;;;31.70;61.20;;;;;;5075666;28;20028;-76